sensor_id;sensor_type;location;lat;lon;timestamp;temperature;humidity
6307;DHT22;3186;54.062;9.962;2023-06-04T00:01:58;16.10;1.00
6307;DHT22;3186;54.062;9.962;2023-06-04T00:04:25;16.10;1.00
6307;DHT22;3186;54.062;9.962;2023-06-04T00:06:51;16.00;1.00
6307;DHT22;3186;54.062;9.962;2023-06-04T00:09:17;16.10;1.00
6307;DHT22;3186;54.062;9.962;2023-06-04T00:11:43;16.00;1.00
6307;DHT22;3186;54.062;9.962;2023-06-04T00:14:11;15.90;1.00
6307;DHT22;3186;54.062;9.962;2023-06-04T00:16:37;15.90;1.00
6307;DHT22;3186;54.062;9.962;2023-06-04T00:19:03;15.80;1.00
6307;DHT22;3186;54.062;9.962;2023-06-04T00:21:29;15.80;1.00
6307;DHT22;3186;54.062;9.962;2023-06-04T00:23:55;15.70;1.00
6307;DHT22;3186;54.062;9.962;2023-06-04T00:26:20;15.70;1.00
6307;DHT22;3186;54.062;9.962;2023-06-04T00:28:47;15.60;1.00
6307;DHT22;3186;54.062;9.962;2023-06-04T00:31:13;15.60;1.00
6307;DHT22;3186;54.062;9.962;2023-06-04T00:33:40;15.60;1.00
6307;DHT22;3186;54.062;9.962;2023-06-04T00:36:06;15.60;1.00
6307;DHT22;3186;54.062;9.962;2023-06-04T00:38:31;15.50;1.00
6307;DHT22;3186;54.062;9.962;2023-06-04T00:40:58;15.50;1.00
6307;DHT22;3186;54.062;9.962;2023-06-04T00:43:24;15.40;1.00
6307;DHT22;3186;54.062;9.962;2023-06-04T00:45:53;15.40;1.00
6307;DHT22;3186;54.062;9.962;2023-06-04T00:48:20;15.30;1.00
6307;DHT22;3186;54.062;9.962;2023-06-04T00:50:47;15.40;1.00
6307;DHT22;3186;54.062;9.962;2023-06-04T00:53:14;15.20;1.00
6307;DHT22;3186;54.062;9.962;2023-06-04T00:55:40;15.30;1.00
6307;DHT22;3186;54.062;9.962;2023-06-04T00:58:07;15.20;1.00
6307;DHT22;3186;54.062;9.962;2023-06-04T01:00:35;15.10;1.00
6307;DHT22;3186;54.062;9.962;2023-06-04T01:03:06;15.10;1.00
6307;DHT22;3186;54.062;9.962;2023-06-04T01:05:41;15.10;1.00
6307;DHT22;3186;54.062;9.962;2023-06-04T01:08:10;15.00;1.00
6307;DHT22;3186;54.062;9.962;2023-06-04T01:10:36;15.00;1.00
6307;DHT22;3186;54.062;9.962;2023-06-04T01:13:02;15.00;1.00
6307;DHT22;3186;54.062;9.962;2023-06-04T01:15:28;14.90;1.00
6307;DHT22;3186;54.062;9.962;2023-06-04T01:18:00;14.90;1.00
6307;DHT22;3186;54.062;9.962;2023-06-04T01:20:34;14.80;1.00
6307;DHT22;3186;54.062;9.962;2023-06-04T01:23:14;14.80;1.00
6307;DHT22;3186;54.062;9.962;2023-06-04T01:25:45;14.70;1.00
6307;DHT22;3186;54.062;9.962;2023-06-04T01:28:15;14.80;1.00
6307;DHT22;3186;54.062;9.962;2023-06-04T01:30:46;14.70;1.00
6307;DHT22;3186;54.062;9.962;2023-06-04T01:33:17;14.60;1.00
6307;DHT22;3186;54.062;9.962;2023-06-04T01:35:43;14.60;1.00
6307;DHT22;3186;54.062;9.962;2023-06-04T01:38:09;14.60;1.00
6307;DHT22;3186;54.062;9.962;2023-06-04T01:40:36;14.60;1.00
6307;DHT22;3186;54.062;9.962;2023-06-04T01:43:02;14.50;1.00
6307;DHT22;3186;54.062;9.962;2023-06-04T01:45:28;14.50;1.00
6307;DHT22;3186;54.062;9.962;2023-06-04T01:47:55;14.50;1.00
6307;DHT22;3186;54.062;9.962;2023-06-04T01:50:23;14.50;1.00
6307;DHT22;3186;54.062;9.962;2023-06-04T01:52:49;14.40;1.00
6307;DHT22;3186;54.062;9.962;2023-06-04T01:55:16;14.40;1.00
6307;DHT22;3186;54.062;9.962;2023-06-04T01:57:44;14.40;1.00
6307;DHT22;3186;54.062;9.962;2023-06-04T02:00:11;14.30;1.00
6307;DHT22;3186;54.062;9.962;2023-06-04T02:02:45;14.30;1.00
6307;DHT22;3186;54.062;9.962;2023-06-04T02:05:11;14.30;1.00
6307;DHT22;3186;54.062;9.962;2023-06-04T02:07:39;14.20;1.00
6307;DHT22;3186;54.062;9.962;2023-06-04T02:10:06;14.40;1.00
6307;DHT22;3186;54.062;9.962;2023-06-04T02:12:32;14.10;1.00
6307;DHT22;3186;54.062;9.962;2023-06-04T02:14:58;14.10;1.00
6307;DHT22;3186;54.062;9.962;2023-06-04T02:17:24;14.10;1.00
6307;DHT22;3186;54.062;9.962;2023-06-04T02:19:50;14.10;1.00
6307;DHT22;3186;54.062;9.962;2023-06-04T02:22:17;14.00;1.00
6307;DHT22;3186;54.062;9.962;2023-06-04T02:24:43;14.00;1.00
6307;DHT22;3186;54.062;9.962;2023-06-04T02:27:10;14.00;1.00
6307;DHT22;3186;54.062;9.962;2023-06-04T02:29:36;13.90;1.00
6307;DHT22;3186;54.062;9.962;2023-06-04T02:32:04;13.90;1.00
6307;DHT22;3186;54.062;9.962;2023-06-04T02:34:30;13.90;1.00
6307;DHT22;3186;54.062;9.962;2023-06-04T02:36:56;13.80;1.00
6307;DHT22;3186;54.062;9.962;2023-06-04T02:39:22;13.90;1.00
6307;DHT22;3186;54.062;9.962;2023-06-04T02:41:47;13.70;1.00
6307;DHT22;3186;54.062;9.962;2023-06-04T02:44:14;13.70;1.00
6307;DHT22;3186;54.062;9.962;2023-06-04T02:46:39;13.70;1.00
6307;DHT22;3186;54.062;9.962;2023-06-04T02:49:05;13.70;1.00
6307;DHT22;3186;54.062;9.962;2023-06-04T02:51:31;13.70;1.00
6307;DHT22;3186;54.062;9.962;2023-06-04T02:53:58;13.60;1.00
6307;DHT22;3186;54.062;9.962;2023-06-04T02:56:24;13.60;1.00
6307;DHT22;3186;54.062;9.962;2023-06-04T02:58:54;13.60;1.00
6307;DHT22;3186;54.062;9.962;2023-06-04T03:01:25;13.50;1.00
6307;DHT22;3186;54.062;9.962;2023-06-04T03:03:52;13.50;1.00
6307;DHT22;3186;54.062;9.962;2023-06-04T03:06:19;13.50;1.00
6307;DHT22;3186;54.062;9.962;2023-06-04T03:08:50;13.40;1.00
6307;DHT22;3186;54.062;9.962;2023-06-04T03:11:19;13.40;1.00
6307;DHT22;3186;54.062;9.962;2023-06-04T03:13:48;13.40;1.40
6307;DHT22;3186;54.062;9.962;2023-06-04T03:16:15;13.40;1.10
6307;DHT22;3186;54.062;9.962;2023-06-04T03:18:41;13.40;2.20
6307;DHT22;3186;54.062;9.962;2023-06-04T03:21:09;13.40;2.60
6307;DHT22;3186;54.062;9.962;2023-06-04T03:23:37;13.30;2.40
6307;DHT22;3186;54.062;9.962;2023-06-04T03:26:04;13.30;3.40
6307;DHT22;3186;54.062;9.962;2023-06-04T03:28:31;13.30;4.10
6307;DHT22;3186;54.062;9.962;2023-06-04T03:30:59;13.30;3.90
6307;DHT22;3186;54.062;9.962;2023-06-04T03:33:26;13.20;4.50
6307;DHT22;3186;54.062;9.962;2023-06-04T03:35:52;13.20;4.40
6307;DHT22;3186;54.062;9.962;2023-06-04T03:38:19;13.20;4.80
6307;DHT22;3186;54.062;9.962;2023-06-04T03:40:46;13.20;5.10
6307;DHT22;3186;54.062;9.962;2023-06-04T03:43:13;13.20;5.60
6307;DHT22;3186;54.062;9.962;2023-06-04T03:45:40;13.10;6.40
6307;DHT22;3186;54.062;9.962;2023-06-04T03:48:07;13.20;7.50
6307;DHT22;3186;54.062;9.962;2023-06-04T03:50:35;13.10;2.90
6307;DHT22;3186;54.062;9.962;2023-06-04T03:53:01;13.10;3.50
6307;DHT22;3186;54.062;9.962;2023-06-04T03:55:29;13.10;3.90
6307;DHT22;3186;54.062;9.962;2023-06-04T03:57:58;13.10;4.80
6307;DHT22;3186;54.062;9.962;2023-06-04T04:00:24;13.10;5.00
6307;DHT22;3186;54.062;9.962;2023-06-04T04:02:54;13.10;5.40
6307;DHT22;3186;54.062;9.962;2023-06-04T04:05:25;13.00;5.90
6307;DHT22;3186;54.062;9.962;2023-06-04T04:07:52;13.00;9.20
6307;DHT22;3186;54.062;9.962;2023-06-04T04:10:22;13.00;8.80
6307;DHT22;3186;54.062;9.962;2023-06-04T04:12:48;13.00;10.00
6307;DHT22;3186;54.062;9.962;2023-06-04T04:15:16;13.00;9.90
6307;DHT22;3186;54.062;9.962;2023-06-04T04:17:43;13.00;10.80
6307;DHT22;3186;54.062;9.962;2023-06-04T04:20:10;12.90;12.60
6307;DHT22;3186;54.062;9.962;2023-06-04T04:22:42;13.00;13.20
6307;DHT22;3186;54.062;9.962;2023-06-04T04:25:10;13.00;13.80
6307;DHT22;3186;54.062;9.962;2023-06-04T04:27:36;13.00;13.30
6307;DHT22;3186;54.062;9.962;2023-06-04T04:30:08;13.00;21.30
6307;DHT22;3186;54.062;9.962;2023-06-04T04:32:36;12.90;15.50
6307;DHT22;3186;54.062;9.962;2023-06-04T04:35:05;13.00;15.10
6307;DHT22;3186;54.062;9.962;2023-06-04T04:37:35;13.00;16.70
6307;DHT22;3186;54.062;9.962;2023-06-04T04:40:06;13.00;16.90
6307;DHT22;3186;54.062;9.962;2023-06-04T04:42:35;12.90;19.30
6307;DHT22;3186;54.062;9.962;2023-06-04T04:45:03;12.90;19.10
6307;DHT22;3186;54.062;9.962;2023-06-04T04:47:31;12.90;19.10
6307;DHT22;3186;54.062;9.962;2023-06-04T04:49:56;13.00;19.00
6307;DHT22;3186;54.062;9.962;2023-06-04T04:52:22;12.90;23.10
6307;DHT22;3186;54.062;9.962;2023-06-04T04:54:48;12.80;26.10
6307;DHT22;3186;54.062;9.962;2023-06-04T04:57:14;12.80;34.00
6307;DHT22;3186;54.062;9.962;2023-06-04T04:59:45;12.80;24.60
6307;DHT22;3186;54.062;9.962;2023-06-04T05:02:11;12.90;24.50
6307;DHT22;3186;54.062;9.962;2023-06-04T05:04:37;12.90;24.00
6307;DHT22;3186;54.062;9.962;2023-06-04T05:07:03;12.90;23.60
6307;DHT22;3186;54.062;9.962;2023-06-04T05:09:29;12.90;31.00
6307;DHT22;3186;54.062;9.962;2023-06-04T05:11:55;12.80;29.60
6307;DHT22;3186;54.062;9.962;2023-06-04T05:14:21;12.80;34.20
6307;DHT22;3186;54.062;9.962;2023-06-04T05:16:47;12.90;30.90
6307;DHT22;3186;54.062;9.962;2023-06-04T05:19:18;12.90;34.70
6307;DHT22;3186;54.062;9.962;2023-06-04T05:21:44;13.00;32.40
6307;DHT22;3186;54.062;9.962;2023-06-04T05:24:10;13.10;29.50
6307;DHT22;3186;54.062;9.962;2023-06-04T05:26:38;13.10;30.30
6307;DHT22;3186;54.062;9.962;2023-06-04T05:29:11;13.10;30.00
6307;DHT22;3186;54.062;9.962;2023-06-04T05:31:40;13.10;41.30
6307;DHT22;3186;54.062;9.962;2023-06-04T05:34:09;13.30;36.20
6307;DHT22;3186;54.062;9.962;2023-06-04T05:36:38;13.30;35.10
6307;DHT22;3186;54.062;9.962;2023-06-04T05:39:06;13.40;71.10
6307;DHT22;3186;54.062;9.962;2023-06-04T05:41:44;13.40;39.50
6307;DHT22;3186;54.062;9.962;2023-06-04T05:44:11;13.50;46.50
6307;DHT22;3186;54.062;9.962;2023-06-04T05:46:37;13.50;52.40
6307;DHT22;3186;54.062;9.962;2023-06-04T05:49:03;13.60;39.60
6307;DHT22;3186;54.062;9.962;2023-06-04T05:51:29;13.70;44.30
6307;DHT22;3186;54.062;9.962;2023-06-04T05:53:55;14.00;52.20
6307;DHT22;3186;54.062;9.962;2023-06-04T05:56:21;14.00;45.80
6307;DHT22;3186;54.062;9.962;2023-06-04T05:58:52;14.10;41.10
6307;DHT22;3186;54.062;9.962;2023-06-04T06:01:18;14.20;38.60
6307;DHT22;3186;54.062;9.962;2023-06-04T06:03:44;14.30;38.00
6307;DHT22;3186;54.062;9.962;2023-06-04T06:06:10;14.40;35.80
6307;DHT22;3186;54.062;9.962;2023-06-04T06:08:36;14.50;33.60
6307;DHT22;3186;54.062;9.962;2023-06-04T06:11:03;14.60;34.20
6307;DHT22;3186;54.062;9.962;2023-06-04T06:13:30;14.80;40.30
6307;DHT22;3186;54.062;9.962;2023-06-04T06:15:56;14.80;31.80
6307;DHT22;3186;54.062;9.962;2023-06-04T06:18:23;15.00;32.70
6307;DHT22;3186;54.062;9.962;2023-06-04T06:20:49;15.00;32.00
6307;DHT22;3186;54.062;9.962;2023-06-04T06:23:15;15.10;35.80
6307;DHT22;3186;54.062;9.962;2023-06-04T06:25:44;15.20;46.20
6307;DHT22;3186;54.062;9.962;2023-06-04T06:28:16;15.30;37.90
6307;DHT22;3186;54.062;9.962;2023-06-04T06:30:44;15.30;29.90
6307;DHT22;3186;54.062;9.962;2023-06-04T06:33:10;15.50;28.00
6307;DHT22;3186;54.062;9.962;2023-06-04T06:35:36;15.60;30.00
6307;DHT22;3186;54.062;9.962;2023-06-04T06:38:02;15.70;37.40
6307;DHT22;3186;54.062;9.962;2023-06-04T06:40:28;15.90;30.30
6307;DHT22;3186;54.062;9.962;2023-06-04T06:42:56;16.10;26.20
6307;DHT22;3186;54.062;9.962;2023-06-04T06:45:22;16.30;23.60
6307;DHT22;3186;54.062;9.962;2023-06-04T06:47:48;16.50;27.30
6307;DHT22;3186;54.062;9.962;2023-06-04T06:50:13;16.70;27.80
6307;DHT22;3186;54.062;9.962;2023-06-04T06:52:39;16.60;20.80
6307;DHT22;3186;54.062;9.962;2023-06-04T06:55:06;16.60;20.80
6307;DHT22;3186;54.062;9.962;2023-06-04T06:57:33;16.50;21.70
6307;DHT22;3186;54.062;9.962;2023-06-04T06:59:59;16.70;27.40
6307;DHT22;3186;54.062;9.962;2023-06-04T07:02:25;16.90;22.30
6307;DHT22;3186;54.062;9.962;2023-06-04T07:04:51;17.50;19.80
6307;DHT22;3186;54.062;9.962;2023-06-04T07:07:16;17.60;18.10
6307;DHT22;3186;54.062;9.962;2023-06-04T07:09:42;17.40;14.10
6307;DHT22;3186;54.062;9.962;2023-06-04T07:12:08;17.50;15.60
6307;DHT22;3186;54.062;9.962;2023-06-04T07:14:34;17.70;15.50
6307;DHT22;3186;54.062;9.962;2023-06-04T07:17:00;17.70;12.60
6307;DHT22;3186;54.062;9.962;2023-06-04T07:19:26;17.80;12.20
6307;DHT22;3186;54.062;9.962;2023-06-04T07:21:54;18.00;16.80
6307;DHT22;3186;54.062;9.962;2023-06-04T07:24:20;17.90;8.10
6307;DHT22;3186;54.062;9.962;2023-06-04T07:26:46;17.90;10.00
6307;DHT22;3186;54.062;9.962;2023-06-04T07:29:12;17.90;8.10
6307;DHT22;3186;54.062;9.962;2023-06-04T07:31:38;18.20;14.10
6307;DHT22;3186;54.062;9.962;2023-06-04T07:34:04;18.60;6.10
6307;DHT22;3186;54.062;9.962;2023-06-04T07:36:30;18.70;6.80
6307;DHT22;3186;54.062;9.962;2023-06-04T07:38:57;18.60;7.30
6307;DHT22;3186;54.062;9.962;2023-06-04T07:41:23;18.90;8.80
6307;DHT22;3186;54.062;9.962;2023-06-04T07:43:49;18.90;5.50
6307;DHT22;3186;54.062;9.962;2023-06-04T07:46:14;18.90;3.60
6307;DHT22;3186;54.062;9.962;2023-06-04T07:48:44;19.50;6.40
6307;DHT22;3186;54.062;9.962;2023-06-04T07:51:10;19.60;1.00
6307;DHT22;3186;54.062;9.962;2023-06-04T07:53:39;19.60;1.90
6307;DHT22;3186;54.062;9.962;2023-06-04T07:56:08;19.90;3.70
6307;DHT22;3186;54.062;9.962;2023-06-04T07:58:34;20.00;1.00
6307;DHT22;3186;54.062;9.962;2023-06-04T08:01:00;19.80;1.00
6307;DHT22;3186;54.062;9.962;2023-06-04T08:03:26;20.10;1.00
6307;DHT22;3186;54.062;9.962;2023-06-04T08:05:52;20.20;1.00
6307;DHT22;3186;54.062;9.962;2023-06-04T08:08:18;19.70;1.00
6307;DHT22;3186;54.062;9.962;2023-06-04T08:10:44;20.10;1.00
6307;DHT22;3186;54.062;9.962;2023-06-04T08:13:10;20.20;1.00
6307;DHT22;3186;54.062;9.962;2023-06-04T08:15:36;20.80;1.00
6307;DHT22;3186;54.062;9.962;2023-06-04T08:18:02;20.70;1.00
6307;DHT22;3186;54.062;9.962;2023-06-04T08:20:27;20.60;1.00
6307;DHT22;3186;54.062;9.962;2023-06-04T08:22:53;21.20;1.00
6307;DHT22;3186;54.062;9.962;2023-06-04T08:25:19;21.00;1.00
6307;DHT22;3186;54.062;9.962;2023-06-04T08:27:45;21.30;1.00
6307;DHT22;3186;54.062;9.962;2023-06-04T08:30:11;21.40;1.00
6307;DHT22;3186;54.062;9.962;2023-06-04T08:32:37;21.80;1.00
6307;DHT22;3186;54.062;9.962;2023-06-04T08:35:03;22.10;1.00
6307;DHT22;3186;54.062;9.962;2023-06-04T08:37:28;21.60;1.00
6307;DHT22;3186;54.062;9.962;2023-06-04T08:39:54;21.30;1.00
6307;DHT22;3186;54.062;9.962;2023-06-04T08:42:27;22.00;1.00
6307;DHT22;3186;54.062;9.962;2023-06-04T08:44:57;22.90;1.00
6307;DHT22;3186;54.062;9.962;2023-06-04T08:47:25;22.30;1.00
6307;DHT22;3186;54.062;9.962;2023-06-04T08:49:55;22.50;1.70
6307;DHT22;3186;54.062;9.962;2023-06-04T08:52:24;22.60;1.00
6307;DHT22;3186;54.062;9.962;2023-06-04T08:54:51;22.90;1.00
6307;DHT22;3186;54.062;9.962;2023-06-04T08:57:18;23.30;1.00
6307;DHT22;3186;54.062;9.962;2023-06-04T08:59:48;23.10;1.00
6307;DHT22;3186;54.062;9.962;2023-06-04T09:02:17;23.00;1.00
6307;DHT22;3186;54.062;9.962;2023-06-04T09:04:44;22.40;1.00
6307;DHT22;3186;54.062;9.962;2023-06-04T09:07:12;22.70;1.00
6307;DHT22;3186;54.062;9.962;2023-06-04T09:09:39;23.30;1.00
6307;DHT22;3186;54.062;9.962;2023-06-04T09:12:09;23.40;1.00
6307;DHT22;3186;54.062;9.962;2023-06-04T09:14:36;23.50;1.00
6307;DHT22;3186;54.062;9.962;2023-06-04T09:17:02;23.80;1.00
6307;DHT22;3186;54.062;9.962;2023-06-04T09:19:28;24.40;1.00
6307;DHT22;3186;54.062;9.962;2023-06-04T09:21:59;24.20;1.00
6307;DHT22;3186;54.062;9.962;2023-06-04T09:24:39;24.10;1.00
6307;DHT22;3186;54.062;9.962;2023-06-04T09:27:16;24.20;1.00
6307;DHT22;3186;54.062;9.962;2023-06-04T09:29:52;24.40;1.00
6307;DHT22;3186;54.062;9.962;2023-06-04T09:32:29;24.80;1.00
6307;DHT22;3186;54.062;9.962;2023-06-04T09:35:08;25.40;1.00
6307;DHT22;3186;54.062;9.962;2023-06-04T09:37:35;25.50;1.00
6307;DHT22;3186;54.062;9.962;2023-06-04T09:40:02;25.50;1.00
6307;DHT22;3186;54.062;9.962;2023-06-04T09:42:30;25.70;1.00
6307;DHT22;3186;54.062;9.962;2023-06-04T09:44:56;25.40;1.00
6307;DHT22;3186;54.062;9.962;2023-06-04T09:47:23;25.50;1.00
6307;DHT22;3186;54.062;9.962;2023-06-04T09:49:49;25.50;1.00
6307;DHT22;3186;54.062;9.962;2023-06-04T09:52:18;26.10;1.00
6307;DHT22;3186;54.062;9.962;2023-06-04T09:54:46;26.70;1.00
6307;DHT22;3186;54.062;9.962;2023-06-04T09:57:16;26.50;1.00
6307;DHT22;3186;54.062;9.962;2023-06-04T09:59:44;26.70;1.00
6307;DHT22;3186;54.062;9.962;2023-06-04T10:02:12;26.80;1.00
6307;DHT22;3186;54.062;9.962;2023-06-04T10:04:42;26.80;1.00
6307;DHT22;3186;54.062;9.962;2023-06-04T10:07:11;26.80;1.00
6307;DHT22;3186;54.062;9.962;2023-06-04T10:09:43;25.60;1.00
6307;DHT22;3186;54.062;9.962;2023-06-04T10:12:16;26.20;1.00
6307;DHT22;3186;54.062;9.962;2023-06-04T10:17:21;26.70;1.00
6307;DHT22;3186;54.062;9.962;2023-06-04T10:19:49;26.70;1.00
6307;DHT22;3186;54.062;9.962;2023-06-04T10:22:17;26.40;1.00
6307;DHT22;3186;54.062;9.962;2023-06-04T10:24:44;27.30;1.00
6307;DHT22;3186;54.062;9.962;2023-06-04T10:27:11;27.30;1.00
6307;DHT22;3186;54.062;9.962;2023-06-04T10:29:39;26.30;1.00
6307;DHT22;3186;54.062;9.962;2023-06-04T10:32:05;26.50;1.00
6307;DHT22;3186;54.062;9.962;2023-06-04T10:34:31;27.80;1.00
6307;DHT22;3186;54.062;9.962;2023-06-04T10:36:57;27.90;1.00
6307;DHT22;3186;54.062;9.962;2023-06-04T10:39:30;27.60;1.00
6307;DHT22;3186;54.062;9.962;2023-06-04T10:42:04;27.20;1.00
6307;DHT22;3186;54.062;9.962;2023-06-04T10:44:31;26.90;1.00
6307;DHT22;3186;54.062;9.962;2023-06-04T10:46:58;26.80;1.00
6307;DHT22;3186;54.062;9.962;2023-06-04T10:49:28;27.50;1.00
6307;DHT22;3186;54.062;9.962;2023-06-04T10:51:54;27.50;1.00
6307;DHT22;3186;54.062;9.962;2023-06-04T10:54:29;27.70;1.00
6307;DHT22;3186;54.062;9.962;2023-06-04T10:56:55;27.50;1.00
6307;DHT22;3186;54.062;9.962;2023-06-04T10:59:21;27.00;1.00
6307;DHT22;3186;54.062;9.962;2023-06-04T11:01:49;26.40;1.00
6307;DHT22;3186;54.062;9.962;2023-06-04T11:04:23;26.90;1.00
6307;DHT22;3186;54.062;9.962;2023-06-04T11:07:09;26.70;1.00
6307;DHT22;3186;54.062;9.962;2023-06-04T11:09:36;26.80;1.00
6307;DHT22;3186;54.062;9.962;2023-06-04T11:12:04;27.90;1.00
6307;DHT22;3186;54.062;9.962;2023-06-04T11:14:31;28.60;1.00
6307;DHT22;3186;54.062;9.962;2023-06-04T11:19:23;28.60;1.00
6307;DHT22;3186;54.062;9.962;2023-06-04T11:21:49;28.10;1.00
6307;DHT22;3186;54.062;9.962;2023-06-04T11:24:16;27.60;1.00
6307;DHT22;3186;54.062;9.962;2023-06-04T11:26:42;27.80;1.00
6307;DHT22;3186;54.062;9.962;2023-06-04T11:29:10;28.60;1.00
6307;DHT22;3186;54.062;9.962;2023-06-04T11:31:49;28.80;1.00
6307;DHT22;3186;54.062;9.962;2023-06-04T11:34:29;29.10;1.00
6307;DHT22;3186;54.062;9.962;2023-06-04T11:36:55;28.80;1.00
6307;DHT22;3186;54.062;9.962;2023-06-04T11:39:22;27.60;1.00
6307;DHT22;3186;54.062;9.962;2023-06-04T11:41:50;28.30;1.00
6307;DHT22;3186;54.062;9.962;2023-06-04T11:44:19;29.60;1.00
6307;DHT22;3186;54.062;9.962;2023-06-04T11:46:45;29.70;1.00
6307;DHT22;3186;54.062;9.962;2023-06-04T11:49:18;29.10;1.00
6307;DHT22;3186;54.062;9.962;2023-06-04T11:51:52;29.00;1.00
6307;DHT22;3186;54.062;9.962;2023-06-04T11:54:20;28.30;1.00
6307;DHT22;3186;54.062;9.962;2023-06-04T11:56:48;28.50;1.00
6307;DHT22;3186;54.062;9.962;2023-06-04T11:59:16;28.70;1.00
6307;DHT22;3186;54.062;9.962;2023-06-04T12:01:44;28.70;1.00
6307;DHT22;3186;54.062;9.962;2023-06-04T12:04:15;29.20;1.00
6307;DHT22;3186;54.062;9.962;2023-06-04T12:06:56;29.10;1.00
6307;DHT22;3186;54.062;9.962;2023-06-04T12:09:31;29.90;1.00
6307;DHT22;3186;54.062;9.962;2023-06-04T12:12:02;29.80;1.00
6307;DHT22;3186;54.062;9.962;2023-06-04T12:14:28;29.50;1.00
6307;DHT22;3186;54.062;9.962;2023-06-04T12:19:22;29.60;1.00
6307;DHT22;3186;54.062;9.962;2023-06-04T12:21:59;29.90;1.00
6307;DHT22;3186;54.062;9.962;2023-06-04T12:24:26;29.60;1.00
6307;DHT22;3186;54.062;9.962;2023-06-04T12:27:05;29.70;1.00
6307;DHT22;3186;54.062;9.962;2023-06-04T12:29:31;29.70;1.00
6307;DHT22;3186;54.062;9.962;2023-06-04T12:32:05;29.20;1.00
6307;DHT22;3186;54.062;9.962;2023-06-04T12:34:36;29.20;1.00
6307;DHT22;3186;54.062;9.962;2023-06-04T12:37:02;29.40;1.00
6307;DHT22;3186;54.062;9.962;2023-06-04T12:39:33;29.80;1.00
6307;DHT22;3186;54.062;9.962;2023-06-04T12:41:59;29.80;1.00
6307;DHT22;3186;54.062;9.962;2023-06-04T12:44:25;29.90;1.00
6307;DHT22;3186;54.062;9.962;2023-06-04T12:49:17;30.30;1.00
6307;DHT22;3186;54.062;9.962;2023-06-04T12:51:43;30.50;1.00
6307;DHT22;3186;54.062;9.962;2023-06-04T12:54:09;29.70;1.00
6307;DHT22;3186;54.062;9.962;2023-06-04T12:56:35;29.80;1.00
6307;DHT22;3186;54.062;9.962;2023-06-04T12:59:01;29.30;1.00
6307;DHT22;3186;54.062;9.962;2023-06-04T13:01:27;28.90;1.00
6307;DHT22;3186;54.062;9.962;2023-06-04T13:03:53;29.40;1.00
6307;DHT22;3186;54.062;9.962;2023-06-04T13:06:21;29.30;1.00
6307;DHT22;3186;54.062;9.962;2023-06-04T13:08:46;29.60;1.00
6307;DHT22;3186;54.062;9.962;2023-06-04T13:11:12;30.10;1.00
6307;DHT22;3186;54.062;9.962;2023-06-04T13:13:38;30.20;1.00
6307;DHT22;3186;54.062;9.962;2023-06-04T13:16:04;30.30;1.00
6307;DHT22;3186;54.062;9.962;2023-06-04T13:18:30;30.50;1.00
6307;DHT22;3186;54.062;9.962;2023-06-04T13:20:56;30.50;1.00
6307;DHT22;3186;54.062;9.962;2023-06-04T13:23:22;30.30;1.00
6307;DHT22;3186;54.062;9.962;2023-06-04T13:25:48;29.70;1.00
6307;DHT22;3186;54.062;9.962;2023-06-04T13:28:14;30.10;1.00
6307;DHT22;3186;54.062;9.962;2023-06-04T13:30:41;30.40;1.00
6307;DHT22;3186;54.062;9.962;2023-06-04T13:33:06;30.30;1.00
6307;DHT22;3186;54.062;9.962;2023-06-04T13:35:32;29.60;1.00
6307;DHT22;3186;54.062;9.962;2023-06-04T13:37:58;30.10;1.00
6307;DHT22;3186;54.062;9.962;2023-06-04T13:40:24;30.10;1.00
6307;DHT22;3186;54.062;9.962;2023-06-04T13:42:50;30.10;1.00
6307;DHT22;3186;54.062;9.962;2023-06-04T13:45:16;30.10;1.00
6307;DHT22;3186;54.062;9.962;2023-06-04T13:47:42;30.20;1.00
6307;DHT22;3186;54.062;9.962;2023-06-04T13:50:09;30.40;1.00
6307;DHT22;3186;54.062;9.962;2023-06-04T13:52:35;31.10;1.00
6307;DHT22;3186;54.062;9.962;2023-06-04T13:55:01;29.80;1.00
6307;DHT22;3186;54.062;9.962;2023-06-04T13:57:27;29.20;1.00
6307;DHT22;3186;54.062;9.962;2023-06-04T13:59:53;29.70;1.00
6307;DHT22;3186;54.062;9.962;2023-06-04T14:02:19;29.80;1.00
6307;DHT22;3186;54.062;9.962;2023-06-04T14:04:46;30.20;1.00
6307;DHT22;3186;54.062;9.962;2023-06-04T14:07:12;30.20;1.00
6307;DHT22;3186;54.062;9.962;2023-06-04T14:09:38;30.30;1.00
6307;DHT22;3186;54.062;9.962;2023-06-04T14:12:04;30.20;1.00
6307;DHT22;3186;54.062;9.962;2023-06-04T14:14:30;29.80;1.00
6307;DHT22;3186;54.062;9.962;2023-06-04T14:17:05;29.70;1.00
6307;DHT22;3186;54.062;9.962;2023-06-04T14:19:34;29.80;1.00
6307;DHT22;3186;54.062;9.962;2023-06-04T14:22:01;29.70;1.00
6307;DHT22;3186;54.062;9.962;2023-06-04T14:24:27;29.60;1.00
6307;DHT22;3186;54.062;9.962;2023-06-04T14:26:53;29.60;1.00
6307;DHT22;3186;54.062;9.962;2023-06-04T14:29:19;29.70;1.00
6307;DHT22;3186;54.062;9.962;2023-06-04T14:31:45;29.90;1.00
6307;DHT22;3186;54.062;9.962;2023-06-04T14:34:11;29.90;1.00
6307;DHT22;3186;54.062;9.962;2023-06-04T14:36:37;29.40;1.00
6307;DHT22;3186;54.062;9.962;2023-06-04T14:39:03;29.70;1.00
6307;DHT22;3186;54.062;9.962;2023-06-04T14:41:29;29.80;1.00
6307;DHT22;3186;54.062;9.962;2023-06-04T14:43:55;29.90;1.00
6307;DHT22;3186;54.062;9.962;2023-06-04T14:46:21;29.90;1.00
6307;DHT22;3186;54.062;9.962;2023-06-04T14:48:47;29.50;1.00
6307;DHT22;3186;54.062;9.962;2023-06-04T14:51:13;29.60;1.00
6307;DHT22;3186;54.062;9.962;2023-06-04T14:53:39;29.90;1.00
6307;DHT22;3186;54.062;9.962;2023-06-04T14:56:05;30.00;1.00
6307;DHT22;3186;54.062;9.962;2023-06-04T14:58:31;29.80;1.00
6307;DHT22;3186;54.062;9.962;2023-06-04T15:00:58;29.50;1.00
6307;DHT22;3186;54.062;9.962;2023-06-04T15:03:24;28.80;1.00
6307;DHT22;3186;54.062;9.962;2023-06-04T15:05:52;28.90;1.00
6307;DHT22;3186;54.062;9.962;2023-06-04T15:08:19;29.40;1.00
6307;DHT22;3186;54.062;9.962;2023-06-04T15:10:46;29.50;1.00
6307;DHT22;3186;54.062;9.962;2023-06-04T15:13:12;29.30;1.00
6307;DHT22;3186;54.062;9.962;2023-06-04T15:15:38;29.50;1.00
6307;DHT22;3186;54.062;9.962;2023-06-04T15:18:03;29.60;1.00
6307;DHT22;3186;54.062;9.962;2023-06-04T15:20:32;29.60;1.00
6307;DHT22;3186;54.062;9.962;2023-06-04T15:22:58;29.80;1.00
6307;DHT22;3186;54.062;9.962;2023-06-04T15:25:24;29.70;1.00
6307;DHT22;3186;54.062;9.962;2023-06-04T15:27:50;29.60;1.00
6307;DHT22;3186;54.062;9.962;2023-06-04T15:30:16;29.40;1.00
6307;DHT22;3186;54.062;9.962;2023-06-04T15:32:43;29.40;1.00
6307;DHT22;3186;54.062;9.962;2023-06-04T15:35:10;29.50;1.00
6307;DHT22;3186;54.062;9.962;2023-06-04T15:37:36;29.40;1.00
6307;DHT22;3186;54.062;9.962;2023-06-04T15:40:03;29.60;1.00
6307;DHT22;3186;54.062;9.962;2023-06-04T15:42:32;29.50;1.00
6307;DHT22;3186;54.062;9.962;2023-06-04T15:44:58;29.60;1.00
6307;DHT22;3186;54.062;9.962;2023-06-04T15:47:24;29.40;1.00
6307;DHT22;3186;54.062;9.962;2023-06-04T15:49:50;29.50;1.00
6307;DHT22;3186;54.062;9.962;2023-06-04T15:52:16;29.50;1.00
6307;DHT22;3186;54.062;9.962;2023-06-04T15:54:42;29.50;1.00
6307;DHT22;3186;54.062;9.962;2023-06-04T15:57:07;29.70;1.00
6307;DHT22;3186;54.062;9.962;2023-06-04T15:59:33;29.10;1.00
6307;DHT22;3186;54.062;9.962;2023-06-04T16:01:59;29.20;1.00
6307;DHT22;3186;54.062;9.962;2023-06-04T16:04:25;29.00;1.00
6307;DHT22;3186;54.062;9.962;2023-06-04T16:06:51;28.90;1.00
6307;DHT22;3186;54.062;9.962;2023-06-04T16:09:17;28.80;1.00
6307;DHT22;3186;54.062;9.962;2023-06-04T16:11:43;29.00;1.00
6307;DHT22;3186;54.062;9.962;2023-06-04T16:14:09;28.80;1.00
6307;DHT22;3186;54.062;9.962;2023-06-04T16:16:34;28.80;1.00
6307;DHT22;3186;54.062;9.962;2023-06-04T16:19:00;28.60;1.00
6307;DHT22;3186;54.062;9.962;2023-06-04T16:21:26;28.70;1.00
6307;DHT22;3186;54.062;9.962;2023-06-04T16:23:52;28.60;1.00
6307;DHT22;3186;54.062;9.962;2023-06-04T16:26:18;28.60;1.00